Time;durP1;ratioP1;P1;durP2;ratioP2;P2;SDS_P1;SDS_P2;PMS_P1;PMS_P2;Temp;Humidity;BMP_temperature;BMP_pressure;BME280_temperature;BME280_humidity;BME280_pressure;Samples;Min_cycle;Max_cycle;Signal;HPM_P1;HPM_P2
2023/04/27 06:00:46;;;;;;;;;;;;;;;;;;5811083;23;20334;-84
2023/04/27 06:03:11;;;;;;;;;;;;;;;;;;5033155;28;20019;-85
2023/04/27 06:05:36;;;;;;;;;;;;;;;;;;5033743;28;19928;-85
2023/04/27 06:08:02;;;;;;;;;;;;;;;;;;5017412;28;20365;-84
2023/04/27 06:10:27;;;;;;;;;;;;;;;;;;5001440;28;20296;-84
2023/04/27 06:12:53;;;;;;;;;;;;;;;;;;5013649;28;19952;-84
2023/04/27 06:15:18;;;;;;;;;;;;;;;;;;5013075;28;19917;-82
2023/04/27 06:17:44;;;;;;;;;;;;;;;;;;5013694;28;19932;-83
2023/04/27 06:20:10;;;;;;;;;;;;;;;;;;5007396;28;20938;-84
2023/04/27 06:22:36;;;;;;;;;;;;;;;;;;4994644;28;19921;-83
2023/04/27 06:25:02;;;;;;;;;;;;;;;;;;4993657;28;19928;-83
2023/04/27 06:27:27;;;;;;;;;;;;;;;;;;4993793;28;19972;-82
2023/04/27 06:29:53;;;;;;;;;;;;;;;;;;5014535;28;19925;-83
2023/04/27 06:32:18;;;;;;;;;;;;;;;;;;5022718;28;19921;-81
2023/04/27 06:34:43;;;;;;;;;;;;;;;;;;5013281;28;20444;-83
2023/04/27 06:37:08;;;;;;;;;;;;;;;;;;5012975;28;20412;-83
2023/04/27 06:39:34;;;;;;;;;;;;;;;;;;5012634;28;19921;-82
2023/04/27 06:41:59;;;;;;;;;;;;;;;;;;5000006;28;19928;-82
2023/04/27 06:44:25;;;;;;;;;;;;;;;;;;5011975;28;19921;-82
2023/04/27 06:46:50;;;;;;;;;;;;;;;;;;5012582;28;19918;-83
2023/04/27 06:49:15;;;;;;;;;;;;;;;;;;4993796;28;19925;-82
2023/04/27 06:51:40;;;;;;;;;;;;;;;;;;5011662;28;19933;-82
2023/04/27 06:54:06;;;;;;;;;;;;;;;;;;5011963;28;19922;-82
2023/04/27 06:56:31;;;;;;;;;;;;;;;;;;5012156;28;20020;-81
2023/04/27 06:58:56;;;;;;;;;;;;;;;;;;5011406;28;19932;-81
2023/04/27 07:01:22;;;;;;;;;;;;;;;;;;5011340;28;19974;-81
2023/04/27 07:03:47;;;;;;;;;;;;;;;;;;5012250;28;20447;-82
2023/04/27 07:06:12;;;;;;;;;;;;;;;;;;5011684;28;19921;-82
2023/04/27 07:08:37;;;;;;;;;;;;;;;;;;5012473;28;19964;-82
2023/04/27 07:11:03;;;;;;;;;;;;;;;;;;5011794;28;19921;-80
2023/04/27 07:13:28;;;;;;;;;;;;;;;;;;5011961;28;19929;-81
2023/04/27 07:15:56;;;;;;;;;;;;;;;;;;5011752;28;20309;-81
2023/04/27 07:18:22;;;;;;;;;;;;;;;;;;4993084;28;20059;-82
2023/04/27 07:20:47;;;;;;;;;;;;;;;;;;5000303;28;20004;-83
2023/04/27 07:23:13;;;;;;;;;;;;;;;;;;5010301;28;20011;-82
2023/04/27 07:25:39;;;;;;;;;;;;;;;;;;5004729;28;19928;-82
2023/04/27 07:28:04;;;;;;;;;;;;;;;;;;5004335;28;20386;-82
2023/04/27 07:30:29;;;;;;;;;;;;;;;;;;4993521;28;19925;-82
2023/04/27 07:32:55;;;;;;;;;;;;;;;;;;5004975;28;19947;-83
2023/04/27 07:35:21;;;;;;;;;;;;;;;;;;5011920;28;19968;-82
2023/04/27 07:37:46;;;;;;;;;;;;;;;;;;5004704;28;20007;-83
2023/04/27 07:40:18;;;;;;;;;;;;;;;;;;4987007;28;19925;-84
2023/04/27 07:42:45;;;;;;;;;;;;;;;;;;5004085;28;20467;-85
2023/04/27 07:45:10;;;;;;;;;;;;;;;;;;5003808;28;19929;-83
2023/04/27 07:47:36;;;;;;;;;;;;;;;;;;5004710;28;19921;-85
2023/04/27 07:50:03;;;;;;;;;;;;;;;;;;5004479;28;20648;-85
2023/04/27 07:52:28;;;;;;;;;;;;;;;;;;5003649;28;19925;-85
2023/04/27 07:54:53;;;;;;;;;;;;;;;;;;5004135;28;19921;-86
2023/04/27 07:57:19;;;;;;;;;;;;;;;;;;5003372;28;19979;-84
2023/04/27 07:59:45;;;;;;;;;;;;;;;;;;5004385;28;19925;-84
2023/04/27 08:02:10;;;;;;;;;;;;;;;;;;5003472;28;19928;-83
2023/04/27 08:04:36;;;;;;;;;;;;;;;;;;4986850;28;19925;-83
2023/04/27 08:07:01;;;;;;;;;;;;;;;;;;5004561;28;19925;-84
2023/04/27 08:09:26;;;;;;;;;;;;;;;;;;5004313;28;20392;-83
2023/04/27 08:11:51;;;;;;;;;;;;;;;;;;5003718;28;20047;-83
2023/04/27 08:14:16;;;;;;;;;;;;;;;;;;5003227;28;19932;-83
2023/04/27 08:16:42;;;;;;;;;;;;;;;;;;5002029;28;20385;-84
2023/04/27 08:19:08;;;;;;;;;;;;;;;;;;5005978;28;19939;-84
2023/04/27 08:21:34;;;;;;;;;;;;;;;;;;5006316;28;19926;-86
2023/04/27 08:23:59;;;;;;;;;;;;;;;;;;5006929;28;19917;-85
2023/04/27 08:26:24;;;;;;;;;;;;;;;;;;5003577;28;19921;-84
2023/04/27 08:28:49;;;;;;;;;;;;;;;;;;5006375;28;20305;-83
2023/04/27 08:31:15;;;;;;;;;;;;;;;;;;5004393;28;20128;-83
2023/04/27 08:33:40;;;;;;;;;;;;;;;;;;5009203;28;19932;-86
2023/04/27 08:36:06;;;;;;;;;;;;;;;;;;5010032;28;19918;-83
2023/04/27 08:38:32;;;;;;;;;;;;;;;;;;5010392;28;19925;-83
2023/04/27 08:40:57;;;;;;;;;;;;;;;;;;5011390;28;19925;-88
2023/04/27 08:43:23;;;;;;;;;;;;;;;;;;5010577;28;19926;-85
2023/04/27 08:45:52;;;;;;;;;;;;;;;;;;5010764;28;19932;-85
2023/04/27 08:48:19;;;;;;;;;;;;;;;;;;5011117;28;19948;-86
2023/04/27 08:50:44;;;;;;;;;;;;;;;;;;5011008;28;20296;-86
2023/04/27 08:53:20;;;;;;;;;;;;;;;;;;5010852;28;19921;-85
2023/04/27 08:55:45;;;;;;;;;;;;;;;;;;5011093;28;19960;-85
2023/04/27 08:58:11;;;;;;;;;;;;;;;;;;5010811;28;19957;-85
2023/04/27 09:00:40;;;;;;;;;;;;;;;;;;5010673;28;19930;-87
2023/04/27 09:03:06;;;;;;;;;;;;;;;;;;5015640;28;19921;-85
2023/04/27 09:05:32;;;;;;;;;;;;;;;;;;5010542;28;20305;-85
2023/04/27 09:08:03;;;;;;;;;;;;;;;;;;5010581;28;19936;-84
2023/04/27 09:10:29;;;;;;;;;;;;;;;;;;5009709;28;19925;-86
2023/04/27 09:12:55;;;;;;;;;;;;;;;;;;5010384;28;19929;-85
2023/04/27 09:15:21;;;;;;;;;;;;;;;;;;5009818;28;19928;-85
2023/04/27 09:17:51;;;;;;;;;;;;;;;;;;5011119;28;19922;-83
2023/04/27 09:20:17;;;;;;;;;;;;;;;;;;5002101;28;19928;-84
2023/04/27 09:22:46;;;;;;;;;;;;;;;;;;5010773;28;20004;-84
2023/04/27 09:25:22;;;;;;;;;;;;;;;;;;5010454;28;19936;-85
2023/04/27 09:27:47;;;;;;;;;;;;;;;;;;5018375;28;20356;-84
2023/04/27 09:30:13;;;;;;;;;;;;;;;;;;5018823;28;19921;-83
2023/04/27 09:32:38;;;;;;;;;;;;;;;;;;5013519;28;19932;-81
2023/04/27 09:35:12;;;;;;;;;;;;;;;;;;5014233;28;20412;-84
2023/04/27 09:37:37;;;;;;;;;;;;;;;;;;5010760;28;19925;-80
2023/04/27 09:40:03;;;;;;;;;;;;;;;;;;5013693;28;20812;-81
2023/04/27 09:42:28;;;;;;;;;;;;;;;;;;5021841;28;20317;-82
2023/04/27 09:44:54;;;;;;;;;;;;;;;;;;5019742;28;19921;-82
2023/04/27 09:47:19;;;;;;;;;;;;;;;;;;5023650;28;19923;-83
2023/04/27 09:49:46;;;;;;;;;;;;;;;;;;5033533;28;19921;-82
2023/04/27 09:52:11;;;;;;;;;;;;;;;;;;5033328;28;19921;-82
2023/04/27 09:54:37;;;;;;;;;;;;;;;;;;5016479;28;20411;-82
2023/04/27 09:57:02;;;;;;;;;;;;;;;;;;5020134;28;19921;-83
2023/04/27 09:59:37;;;;;;;;;;;;;;;;;;5012831;28;19921;-83
2023/04/27 10:02:03;;;;;;;;;;;;;;;;;;5013035;28;19921;-87
2023/04/27 10:04:47;;;;;;;;;;;;;;;;;;5012808;28;19967;-86
2023/04/27 10:07:13;;;;;;;;;;;;;;;;;;5011970;28;20338;-85
2023/04/27 10:09:40;;;;;;;;;;;;;;;;;;5013532;28;19921;-85
2023/04/27 10:12:40;;;;;;;;;;;;;;;;;;4990966;28;19925;-83
2023/04/27 10:15:13;;;;;;;;;;;;;;;;;;4951125;28;20087;-83
2023/04/27 10:17:45;;;;;;;;;;;;;;;;;;4951744;28;19932;-83
2023/04/27 10:20:10;;;;;;;;;;;;;;;;;;4951580;28;20345;-83
2023/04/27 10:22:43;;;;;;;;;;;;;;;;;;4952414;28;19923;-84
2023/04/27 10:25:21;;;;;;;;;;;;;;;;;;4951569;28;19927;-87
2023/04/27 10:28:00;;;;;;;;;;;;;;;;;;4949025;28;19922;-83
2023/04/27 10:30:26;;;;;;;;;;;;;;;;;;4950961;28;19922;-83
2023/04/27 10:32:58;;;;;;;;;;;;;;;;;;4955078;28;19922;-84
2023/04/27 10:35:39;;;;;;;;;;;;;;;;;;4950535;28;20009;-85
2023/04/27 10:38:08;;;;;;;;;;;;;;;;;;4944358;28;20521;-85
2023/04/27 10:40:34;;;;;;;;;;;;;;;;;;4951090;28;19954;-85
2023/04/27 10:43:13;;;;;;;;;;;;;;;;;;4949335;28;19922;-81
2023/04/27 10:45:38;;;;;;;;;;;;;;;;;;4951314;28;19966;-88
2023/04/27 10:48:04;;;;;;;;;;;;;;;;;;4956285;28;20390;-84
2023/04/27 10:50:35;;;;;;;;;;;;;;;;;;5010942;28;19925;-85
2023/04/27 10:53:03;;;;;;;;;;;;;;;;;;5012303;28;19929;-84
2023/04/27 10:55:29;;;;;;;;;;;;;;;;;;4995460;28;20337;-87
2023/04/27 10:57:55;;;;;;;;;;;;;;;;;;5013487;28;20453;-86
2023/04/27 11:00:29;;;;;;;;;;;;;;;;;;5011546;28;20000;-85
2023/04/27 11:02:55;;;;;;;;;;;;;;;;;;5012425;28;19922;-83
2023/04/27 11:05:22;;;;;;;;;;;;;;;;;;5001708;28;19928;-85
2023/04/27 11:07:47;;;;;;;;;;;;;;;;;;5019335;28;19934;-85
2023/04/27 11:10:19;;;;;;;;;;;;;;;;;;5011846;28;20310;-84
2023/04/27 11:12:45;;;;;;;;;;;;;;;;;;5011253;28;20400;-83
2023/04/27 11:15:11;;;;;;;;;;;;;;;;;;5013859;28;19925;-82
2023/04/27 11:17:36;;;;;;;;;;;;;;;;;;4998257;28;19983;-83
2023/04/27 11:20:04;;;;;;;;;;;;;;;;;;5010046;28;19921;-83
2023/04/27 11:22:29;;;;;;;;;;;;;;;;;;5010165;28;19987;-83
2023/04/27 11:24:55;;;;;;;;;;;;;;;;;;5012783;28;20016;-83
2023/04/27 11:27:21;;;;;;;;;;;;;;;;;;5011990;28;19925;-83
2023/04/27 11:29:46;;;;;;;;;;;;;;;;;;5014322;28;19968;-83
2023/04/27 11:32:21;;;;;;;;;;;;;;;;;;5011621;28;20342;-83
2023/04/27 11:34:50;;;;;;;;;;;;;;;;;;5012402;28;19988;-84
2023/04/27 11:37:20;;;;;;;;;;;;;;;;;;5011990;28;19918;-85
2023/04/27 11:39:45;;;;;;;;;;;;;;;;;;5011996;28;19922;-84
2023/04/27 11:42:14;;;;;;;;;;;;;;;;;;4994798;28;19928;-84
2023/04/27 11:44:39;;;;;;;;;;;;;;;;;;5013574;28;19922;-84
2023/04/27 11:47:05;;;;;;;;;;;;;;;;;;5011682;28;19943;-83
2023/04/27 11:49:31;;;;;;;;;;;;;;;;;;5012006;28;19921;-83
2023/04/27 11:51:56;;;;;;;;;;;;;;;;;;5011327;28;19928;-84
2023/04/27 11:54:26;;;;;;;;;;;;;;;;;;5011490;28;19932;-84
2023/04/27 11:56:52;;;;;;;;;;;;;;;;;;5011931;28;19929;-83
2023/04/27 11:59:21;;;;;;;;;;;;;;;;;;5012579;28;20382;-85
2023/04/27 12:01:47;;;;;;;;;;;;;;;;;;5013646;28;19930;-84
2023/04/27 12:04:12;;;;;;;;;;;;;;;;;;5016172;28;19921;-83
2023/04/27 12:06:38;;;;;;;;;;;;;;;;;;5017335;28;19940;-84
2023/04/27 12:09:04;;;;;;;;;;;;;;;;;;5011393;28;20386;-84
2023/04/27 12:11:29;;;;;;;;;;;;;;;;;;5011414;28;19925;-84
2023/04/27 12:13:55;;;;;;;;;;;;;;;;;;5011441;28;20021;-84
2023/04/27 12:16:21;;;;;;;;;;;;;;;;;;5016010;28;19921;-83
2023/04/27 12:18:47;;;;;;;;;;;;;;;;;;5016830;28;19948;-84
2023/04/27 12:21:13;;;;;;;;;;;;;;;;;;5006191;28;19933;-84
2023/04/27 12:23:38;;;;;;;;;;;;;;;;;;5015477;28;19922;-84
2023/04/27 12:26:04;;;;;;;;;;;;;;;;;;5009711;28;19921;-84
2023/04/27 12:28:29;;;;;;;;;;;;;;;;;;5010814;28;19975;-86
2023/04/27 12:30:54;;;;;;;;;;;;;;;;;;5012153;28;20305;-86
2023/04/27 12:33:20;;;;;;;;;;;;;;;;;;5010101;28;19921;-87
2023/04/27 12:35:46;;;;;;;;;;;;;;;;;;5011497;28;19921;-87
2023/04/27 12:38:11;;;;;;;;;;;;;;;;;;5010590;28;20401;-86
2023/04/27 12:40:36;;;;;;;;;;;;;;;;;;5011069;28;20016;-86
2023/04/27 12:43:01;;;;;;;;;;;;;;;;;;5011581;28;19929;-86
2023/04/27 12:45:27;;;;;;;;;;;;;;;;;;5010679;28;19927;-86
2023/04/27 12:47:53;;;;;;;;;;;;;;;;;;5010772;28;19948;-85
2023/04/27 12:50:19;;;;;;;;;;;;;;;;;;5010847;28;19944;-86
2023/04/27 12:52:44;;;;;;;;;;;;;;;;;;5011376;28;20381;-85
2023/04/27 12:55:10;;;;;;;;;;;;;;;;;;5010624;28;19956;-86
2023/04/27 12:57:35;;;;;;;;;;;;;;;;;;5010881;28;19925;-86
2023/04/27 13:00:00;;;;;;;;;;;;;;;;;;5011115;28;19921;-86
2023/04/27 13:02:26;;;;;;;;;;;;;;;;;;5012840;28;20349;-86
2023/04/27 13:04:51;;;;;;;;;;;;;;;;;;5013834;28;19928;-85
2023/04/27 13:07:16;;;;;;;;;;;;;;;;;;5011895;28;20401;-86
2023/04/27 13:09:42;;;;;;;;;;;;;;;;;;5018428;28;19925;-87
2023/04/27 13:12:07;;;;;;;;;;;;;;;;;;5016214;28;19937;-86
2023/04/27 13:14:33;;;;;;;;;;;;;;;;;;5014482;28;19928;-86
2023/04/27 13:16:58;;;;;;;;;;;;;;;;;;5019127;28;20004;-87
2023/04/27 13:19:24;;;;;;;;;;;;;;;;;;5033753;28;19924;-85
2023/04/27 13:21:49;;;;;;;;;;;;;;;;;;5019303;28;19929;-86
2023/04/27 13:24:16;;;;;;;;;;;;;;;;;;5025366;28;20459;-86
2023/04/27 13:26:41;;;;;;;;;;;;;;;;;;5014489;28;20404;-87
2023/04/27 13:29:06;;;;;;;;;;;;;;;;;;5013621;28;19922;-86
2023/04/27 13:31:32;;;;;;;;;;;;;;;;;;5013968;28;19928;-84
2023/04/27 13:33:57;;;;;;;;;;;;;;;;;;5014513;28;20456;-84
2023/04/27 13:36:23;;;;;;;;;;;;;;;;;;5014027;28;19929;-84
2023/04/27 13:38:48;;;;;;;;;;;;;;;;;;5021276;28;19921;-84
2023/04/27 13:41:13;;;;;;;;;;;;;;;;;;5033153;28;19921;-84
2023/04/27 13:43:39;;;;;;;;;;;;;;;;;;5033851;28;19952;-84
2023/04/27 13:46:04;;;;;;;;;;;;;;;;;;5033532;28;19977;-83
2023/04/27 13:48:29;;;;;;;;;;;;;;;;;;5014993;28;19927;-84
2023/04/27 13:50:55;;;;;;;;;;;;;;;;;;5014180;28;19921;-85
2023/04/27 13:53:24;;;;;;;;;;;;;;;;;;5013957;28;19929;-84
2023/04/27 13:55:49;;;;;;;;;;;;;;;;;;4996521;28;19967;-85
2023/04/27 13:58:15;;;;;;;;;;;;;;;;;;5013095;28;19953;-83
2023/04/27 14:00:40;;;;;;;;;;;;;;;;;;5013253;28;19921;-84
2023/04/27 14:03:07;;;;;;;;;;;;;;;;;;5013837;28;19928;-83
2023/04/27 14:05:32;;;;;;;;;;;;;;;;;;5012852;28;19921;-84
2023/04/27 14:07:58;;;;;;;;;;;;;;;;;;5013985;28;19932;-83
2023/04/27 14:10:23;;;;;;;;;;;;;;;;;;5012810;28;19925;-84
2023/04/27 14:12:48;;;;;;;;;;;;;;;;;;5012448;28;20000;-86
2023/04/27 14:15:13;;;;;;;;;;;;;;;;;;5012763;28;19968;-83
2023/04/27 14:17:39;;;;;;;;;;;;;;;;;;5013569;28;19921;-85
2023/04/27 14:20:05;;;;;;;;;;;;;;;;;;5011951;28;19932;-85
2023/04/27 14:22:31;;;;;;;;;;;;;;;;;;5012819;28;19972;-84
2023/04/27 14:24:56;;;;;;;;;;;;;;;;;;5013639;28;19978;-85
2023/04/27 14:27:22;;;;;;;;;;;;;;;;;;5007409;28;20008;-88
2023/04/27 14:29:47;;;;;;;;;;;;;;;;;;5014001;28;20617;-85
2023/04/27 14:32:12;;;;;;;;;;;;;;;;;;5006911;28;20662;-85
2023/04/27 14:34:38;;;;;;;;;;;;;;;;;;5012702;28;20381;-84
2023/04/27 14:37:03;;;;;;;;;;;;;;;;;;5013069;28;19961;-86
2023/04/27 14:39:28;;;;;;;;;;;;;;;;;;4995130;28;19933;-85
2023/04/27 14:41:54;;;;;;;;;;;;;;;;;;5013258;28;19963;-84
2023/04/27 14:44:19;;;;;;;;;;;;;;;;;;5011844;28;19929;-85
2023/04/27 14:46:45;;;;;;;;;;;;;;;;;;4994823;28;19922;-85
2023/04/27 14:49:10;;;;;;;;;;;;;;;;;;5011730;28;19972;-83
2023/04/27 14:51:35;;;;;;;;;;;;;;;;;;5012127;28;19960;-86
2023/04/27 14:54:02;;;;;;;;;;;;;;;;;;5012407;28;20290;-84
2023/04/27 14:56:27;;;;;;;;;;;;;;;;;;5012148;28;20409;-84
2023/04/27 14:58:54;;;;;;;;;;;;;;;;;;5011697;28;19929;-85
2023/04/27 15:01:19;;;;;;;;;;;;;;;;;;4994638;28;19921;-84
2023/04/27 15:03:44;;;;;;;;;;;;;;;;;;4994050;28;19945;-83
2023/04/27 15:06:10;;;;;;;;;;;;;;;;;;5001504;28;20337;-83
2023/04/27 15:08:35;;;;;;;;;;;;;;;;;;5012174;28;19928;-84
2023/04/27 15:11:02;;;;;;;;;;;;;;;;;;5009644;28;20374;-84
2023/04/27 15:13:27;;;;;;;;;;;;;;;;;;5010146;28;20323;-86
2023/04/27 15:15:57;;;;;;;;;;;;;;;;;;4992117;28;19925;-87
2023/04/27 15:18:23;;;;;;;;;;;;;;;;;;5011556;28;20011;-85
2023/04/27 15:20:51;;;;;;;;;;;;;;;;;;5009547;28;20031;-85
2023/04/27 15:23:17;;;;;;;;;;;;;;;;;;5010096;28;19921;-86
2023/04/27 15:25:42;;;;;;;;;;;;;;;;;;5009163;28;20004;-86
2023/04/27 15:28:08;;;;;;;;;;;;;;;;;;5008947;28;20460;-85
2023/04/27 15:30:33;;;;;;;;;;;;;;;;;;5007408;28;20408;-88
2023/04/27 15:32:58;;;;;;;;;;;;;;;;;;5010855;28;19928;-84
2023/04/27 15:35:24;;;;;;;;;;;;;;;;;;5011510;28;19964;-81
2023/04/27 15:37:50;;;;;;;;;;;;;;;;;;5011917;28;20016;-83
2023/04/27 15:40:15;;;;;;;;;;;;;;;;;;5011346;28;19921;-84
2023/04/27 15:42:41;;;;;;;;;;;;;;;;;;5011859;28;20397;-82
2023/04/27 15:45:06;;;;;;;;;;;;;;;;;;5011902;28;19925;-82
2023/04/27 15:47:31;;;;;;;;;;;;;;;;;;5012123;28;19968;-83
2023/04/27 15:49:57;;;;;;;;;;;;;;;;;;5000918;28;19929;-83
2023/04/27 15:52:22;;;;;;;;;;;;;;;;;;4974317;28;20009;-84
2023/04/27 15:54:47;;;;;;;;;;;;;;;;;;4992369;28;20358;-84
2023/04/27 15:57:13;;;;;;;;;;;;;;;;;;4991626;28;19961;-84
2023/04/27 15:59:38;;;;;;;;;;;;;;;;;;4998593;28;19926;-84
2023/04/27 16:02:03;;;;;;;;;;;;;;;;;;5016719;28;19921;-84
2023/04/27 16:04:28;;;;;;;;;;;;;;;;;;5010643;28;19931;-83
2023/04/27 16:06:54;;;;;;;;;;;;;;;;;;5011613;28;20055;-85
2023/04/27 16:09:19;;;;;;;;;;;;;;;;;;5011457;28;20313;-84
2023/04/27 16:11:44;;;;;;;;;;;;;;;;;;5010997;28;20012;-84
2023/04/27 16:14:10;;;;;;;;;;;;;;;;;;5011223;28;20402;-84
2023/04/27 16:16:35;;;;;;;;;;;;;;;;;;5011373;28;19957;-84
2023/04/27 16:19:00;;;;;;;;;;;;;;;;;;5011080;28;19928;-83
2023/04/27 16:21:26;;;;;;;;;;;;;;;;;;5010831;28;20356;-85
2023/04/27 16:23:52;;;;;;;;;;;;;;;;;;5011233;28;19925;-85
2023/04/27 16:26:18;;;;;;;;;;;;;;;;;;5010723;28;20361;-85
2023/04/27 16:28:43;;;;;;;;;;;;;;;;;;5012037;28;20016;-85
2023/04/27 16:31:09;;;;;;;;;;;;;;;;;;5030171;28;19924;-85
2023/04/27 16:33:34;;;;;;;;;;;;;;;;;;5011943;28;19922;-85
2023/04/27 16:36:00;;;;;;;;;;;;;;;;;;5012272;28;20281;-85
2023/04/27 16:38:25;;;;;;;;;;;;;;;;;;5011621;28;19921;-86
2023/04/27 16:40:51;;;;;;;;;;;;;;;;;;5011386;28;20352;-85
2023/04/27 16:43:16;;;;;;;;;;;;;;;;;;5013113;28;19965;-85
2023/04/27 16:45:42;;;;;;;;;;;;;;;;;;5011384;28;19928;-85
2023/04/27 16:48:09;;;;;;;;;;;;;;;;;;5013219;28;20317;-85
2023/04/27 16:50:34;;;;;;;;;;;;;;;;;;5011742;28;19972;-85
2023/04/27 16:53:06;;;;;;;;;;;;;;;;;;5011511;28;19953;-89
2023/04/27 16:55:32;;;;;;;;;;;;;;;;;;5011626;28;20370;-87
2023/04/27 16:57:57;;;;;;;;;;;;;;;;;;5011555;28;19928;-86
2023/04/27 17:00:23;;;;;;;;;;;;;;;;;;5009719;28;19987;-86
2023/04/27 17:02:48;;;;;;;;;;;;;;;;;;5006260;28;19925;-86
2023/04/27 17:05:14;;;;;;;;;;;;;;;;;;5009958;28;19922;-85
2023/04/27 17:07:39;;;;;;;;;;;;;;;;;;4992521;28;19921;-85
2023/04/27 17:10:07;;;;;;;;;;;;;;;;;;4992216;28;19921;-86
2023/04/27 17:12:33;;;;;;;;;;;;;;;;;;5010287;28;20007;-86
2023/04/27 17:14:58;;;;;;;;;;;;;;;;;;5010077;28;19987;-86
2023/04/27 17:17:23;;;;;;;;;;;;;;;;;;5010703;28;20040;-86
2023/04/27 17:19:49;;;;;;;;;;;;;;;;;;4995187;28;19977;-85
2023/04/27 17:22:14;;;;;;;;;;;;;;;;;;4980117;28;19921;-84
2023/04/27 17:24:39;;;;;;;;;;;;;;;;;;4998511;28;19976;-85
2023/04/27 17:27:05;;;;;;;;;;;;;;;;;;5003544;28;19928;-85
2023/04/27 17:29:30;;;;;;;;;;;;;;;;;;5000994;28;19922;-87
2023/04/27 17:31:56;;;;;;;;;;;;;;;;;;5011302;28;19957;-87
2023/04/27 17:34:21;;;;;;;;;;;;;;;;;;5010277;28;19921;-86
2023/04/27 17:36:46;;;;;;;;;;;;;;;;;;5007868;28;20016;-87
2023/04/27 17:39:12;;;;;;;;;;;;;;;;;;5009019;28;19922;-87
2023/04/27 17:41:37;;;;;;;;;;;;;;;;;;5009225;28;19922;-86
2023/04/27 17:44:03;;;;;;;;;;;;;;;;;;4992775;28;19929;-84
2023/04/27 17:46:28;;;;;;;;;;;;;;;;;;5009790;28;19980;-85
2023/04/27 17:48:54;;;;;;;;;;;;;;;;;;5013522;28;19922;-86
2023/04/27 17:51:19;;;;;;;;;;;;;;;;;;5014047;28;20420;-84
2023/04/27 17:53:44;;;;;;;;;;;;;;;;;;5015056;28;19921;-85
2023/04/27 17:56:10;;;;;;;;;;;;;;;;;;5013532;28;19921;-83
2023/04/27 17:58:35;;;;;;;;;;;;;;;;;;5014170;28;20386;-85
2023/04/27 18:01:00;;;;;;;;;;;;;;;;;;5013185;28;20004;-84
2023/04/27 18:03:25;;;;;;;;;;;;;;;;;;5015159;28;19937;-85
2023/04/27 18:05:51;;;;;;;;;;;;;;;;;;5013783;28;19924;-84
2023/04/27 18:08:16;;;;;;;;;;;;;;;;;;5012927;28;19928;-83
2023/04/27 18:10:42;;;;;;;;;;;;;;;;;;5014472;28;20413;-84
2023/04/27 18:13:07;;;;;;;;;;;;;;;;;;5014978;28;20427;-84
2023/04/27 18:15:32;;;;;;;;;;;;;;;;;;5014126;28;20008;-83
2023/04/27 18:17:58;;;;;;;;;;;;;;;;;;5013113;28;19932;-84
2023/04/27 18:20:23;;;;;;;;;;;;;;;;;;5012494;28;19963;-83
2023/04/27 18:22:48;;;;;;;;;;;;;;;;;;5013378;28;19921;-83
2023/04/27 18:25:13;;;;;;;;;;;;;;;;;;5012967;28;19928;-84
2023/04/27 18:27:39;;;;;;;;;;;;;;;;;;5012668;28;19928;-83
2023/04/27 18:30:07;;;;;;;;;;;;;;;;;;5024565;28;20460;-82
2023/04/27 18:32:32;;;;;;;;;;;;;;;;;;4997014;28;20008;-82
2023/04/27 18:34:58;;;;;;;;;;;;;;;;;;5014021;28;19964;-82
2023/04/27 18:37:23;;;;;;;;;;;;;;;;;;5013913;28;20462;-82
2023/04/27 18:39:49;;;;;;;;;;;;;;;;;;4997053;28;19925;-84
2023/04/27 18:42:14;;;;;;;;;;;;;;;;;;4995701;28;19921;-84
2023/04/27 18:44:40;;;;;;;;;;;;;;;;;;5013152;28;20338;-81
2023/04/27 18:47:06;;;;;;;;;;;;;;;;;;5012252;28;19932;-81
2023/04/27 18:49:31;;;;;;;;;;;;;;;;;;5011259;28;20417;-81
2023/04/27 18:51:57;;;;;;;;;;;;;;;;;;5012749;28;20024;-81
2023/04/27 18:54:22;;;;;;;;;;;;;;;;;;5006298;28;20250;-81
2023/04/27 18:56:51;;;;;;;;;;;;;;;;;;5012117;28;19933;-82
2023/04/27 18:59:17;;;;;;;;;;;;;;;;;;5005721;28;19996;-80
2023/04/27 19:01:42;;;;;;;;;;;;;;;;;;5010081;28;20028;-81
2023/04/27 19:04:07;;;;;;;;;;;;;;;;;;5012075;28;19921;-82
2023/04/27 19:06:33;;;;;;;;;;;;;;;;;;5011152;28;19937;-81
2023/04/27 19:08:58;;;;;;;;;;;;;;;;;;5010967;28;19922;-81
2023/04/27 19:11:24;;;;;;;;;;;;;;;;;;4999260;28;19968;-80
2023/04/27 19:13:50;;;;;;;;;;;;;;;;;;5011231;28;19979;-81
2023/04/27 19:16:16;;;;;;;;;;;;;;;;;;5010574;28;19975;-81
2023/04/27 19:18:42;;;;;;;;;;;;;;;;;;5011881;28;19925;-81
2023/04/27 19:21:07;;;;;;;;;;;;;;;;;;5010424;28;19922;-81
2023/04/27 19:23:32;;;;;;;;;;;;;;;;;;5011184;28;20394;-81
2023/04/27 19:25:58;;;;;;;;;;;;;;;;;;4993721;28;20345;-80
2023/04/27 19:28:23;;;;;;;;;;;;;;;;;;4994076;28;20000;-80
2023/04/27 19:30:48;;;;;;;;;;;;;;;;;;5017018;28;20013;-81
2023/04/27 19:33:15;;;;;;;;;;;;;;;;;;5011113;28;20286;-81
2023/04/27 19:35:40;;;;;;;;;;;;;;;;;;5012983;28;19928;-80
2023/04/27 19:38:06;;;;;;;;;;;;;;;;;;5031299;28;19921;-80
2023/04/27 19:40:31;;;;;;;;;;;;;;;;;;5014734;28;19925;-81
2023/04/27 19:42:56;;;;;;;;;;;;;;;;;;5012285;28;20000;-80
2023/04/27 19:45:22;;;;;;;;;;;;;;;;;;5011485;28;20338;-80
2023/04/27 19:47:48;;;;;;;;;;;;;;;;;;5029914;28;19928;-81
2023/04/27 19:50:13;;;;;;;;;;;;;;;;;;5030779;28;20404;-81
2023/04/27 19:52:39;;;;;;;;;;;;;;;;;;5014135;28;19944;-81
2023/04/27 19:55:05;;;;;;;;;;;;;;;;;;5012093;28;20011;-80
2023/04/27 19:57:30;;;;;;;;;;;;;;;;;;5011358;28;19928;-81
2023/04/27 19:59:55;;;;;;;;;;;;;;;;;;5010677;28;19922;-79
2023/04/27 20:02:21;;;;;;;;;;;;;;;;;;5010704;28;20333;-80
2023/04/27 20:04:46;;;;;;;;;;;;;;;;;;5011449;28;19921;-78
2023/04/27 20:07:12;;;;;;;;;;;;;;;;;;5010808;28;19921;-80
2023/04/27 20:09:37;;;;;;;;;;;;;;;;;;4993719;28;20017;-80
2023/04/27 20:12:03;;;;;;;;;;;;;;;;;;5009475;28;19934;-79
2023/04/27 20:14:30;;;;;;;;;;;;;;;;;;5011026;28;19922;-79
2023/04/27 20:16:55;;;;;;;;;;;;;;;;;;5010438;28;19921;-80
2023/04/27 20:19:21;;;;;;;;;;;;;;;;;;5009174;28;19921;-81
2023/04/27 20:21:46;;;;;;;;;;;;;;;;;;5010184;28;19922;-81
2023/04/27 20:24:12;;;;;;;;;;;;;;;;;;5009691;28;19928;-81
2023/04/27 20:26:37;;;;;;;;;;;;;;;;;;5011033;28;19929;-80
2023/04/27 20:29:02;;;;;;;;;;;;;;;;;;5010029;28;19929;-81
2023/04/27 20:31:27;;;;;;;;;;;;;;;;;;5004725;28;19921;-82
2023/04/27 20:33:53;;;;;;;;;;;;;;;;;;5009089;28;19983;-81
2023/04/27 20:36:18;;;;;;;;;;;;;;;;;;5011531;28;20028;-79
2023/04/27 20:38:43;;;;;;;;;;;;;;;;;;5009433;28;20405;-80
2023/04/27 20:41:11;;;;;;;;;;;;;;;;;;5016853;28;19925;-80
2023/04/27 20:43:37;;;;;;;;;;;;;;;;;;5023961;28;19944;-82
2023/04/27 20:46:03;;;;;;;;;;;;;;;;;;4992274;28;19928;-81
2023/04/27 20:48:28;;;;;;;;;;;;;;;;;;5010709;28;19922;-80
2023/04/27 20:50:54;;;;;;;;;;;;;;;;;;5010966;28;20274;-81
2023/04/27 20:53:20;;;;;;;;;;;;;;;;;;5010005;28;19921;-81
2023/04/27 20:55:45;;;;;;;;;;;;;;;;;;4992963;28;19928;-81
2023/04/27 20:58:11;;;;;;;;;;;;;;;;;;4992239;28;20340;-81
2023/04/27 21:00:36;;;;;;;;;;;;;;;;;;5011043;28;20024;-80
2023/04/27 21:03:01;;;;;;;;;;;;;;;;;;5010707;28;19964;-82
2023/04/27 21:05:26;;;;;;;;;;;;;;;;;;5010755;28;19921;-79
2023/04/27 21:07:52;;;;;;;;;;;;;;;;;;5010533;28;19953;-80
2023/04/27 21:10:18;;;;;;;;;;;;;;;;;;5009993;28;19976;-81
2023/04/27 21:12:43;;;;;;;;;;;;;;;;;;5010887;28;19922;-79
2023/04/27 21:15:08;;;;;;;;;;;;;;;;;;5010547;28;20004;-78
2023/04/27 21:17:33;;;;;;;;;;;;;;;;;;5010576;28;19929;-81
2023/04/27 21:19:59;;;;;;;;;;;;;;;;;;5010915;28;19929;-80
2023/04/27 21:22:24;;;;;;;;;;;;;;;;;;5010842;28;19921;-78
2023/04/27 21:24:49;;;;;;;;;;;;;;;;;;5014200;28;19921;-78
2023/04/27 21:27:15;;;;;;;;;;;;;;;;;;5014612;28;20750;-78
2023/04/27 21:29:40;;;;;;;;;;;;;;;;;;5022013;28;20015;-78
2023/04/27 21:32:05;;;;;;;;;;;;;;;;;;5014702;28;19929;-77
2023/04/27 21:34:31;;;;;;;;;;;;;;;;;;5014271;28;20060;-78
2023/04/27 21:36:57;;;;;;;;;;;;;;;;;;5014380;28;19928;-78
2023/04/27 21:39:22;;;;;;;;;;;;;;;;;;5013820;28;19921;-78
2023/04/27 21:41:47;;;;;;;;;;;;;;;;;;5013155;28;19926;-79
2023/04/27 21:44:13;;;;;;;;;;;;;;;;;;5014432;28;19931;-78
2023/04/27 21:46:38;;;;;;;;;;;;;;;;;;5023327;28;20360;-78
2023/04/27 21:49:03;;;;;;;;;;;;;;;;;;5020657;28;20036;-78
2023/04/27 21:51:30;;;;;;;;;;;;;;;;;;5021008;28;20297;-79
2023/04/27 21:53:56;;;;;;;;;;;;;;;;;;5021093;28;19979;-78
2023/04/27 21:56:21;;;;;;;;;;;;;;;;;;5021265;28;19925;-77
2023/04/27 21:58:46;;;;;;;;;;;;;;;;;;5016196;28;19925;-79
2023/04/27 22:01:11;;;;;;;;;;;;;;;;;;5019514;28;19921;-78
2023/04/27 22:03:37;;;;;;;;;;;;;;;;;;5021092;28;19937;-75
2023/04/27 22:06:02;;;;;;;;;;;;;;;;;;5022342;28;20459;-76
2023/04/27 22:08:28;;;;;;;;;;;;;;;;;;5019941;28;19925;-79
2023/04/27 22:10:54;;;;;;;;;;;;;;;;;;5016363;28;19926;-78
2023/04/27 22:13:19;;;;;;;;;;;;;;;;;;5014634;28;19952;-77
2023/04/27 22:15:45;;;;;;;;;;;;;;;;;;5023251;28;19921;-79
2023/04/27 22:18:10;;;;;;;;;;;;;;;;;;5021819;28;19921;-78
2023/04/27 22:20:37;;;;;;;;;;;;;;;;;;5019316;28;21044;-78
2023/04/27 22:23:02;;;;;;;;;;;;;;;;;;5020214;28;20000;-79
2023/04/27 22:25:28;;;;;;;;;;;;;;;;;;5010463;28;20418;-79
2023/04/27 22:27:53;;;;;;;;;;;;;;;;;;5010401;28;19921;-79
2023/04/27 22:30:19;;;;;;;;;;;;;;;;;;5014484;28;19921;-80
2023/04/27 22:32:44;;;;;;;;;;;;;;;;;;5012350;28;20309;-78
2023/04/27 22:35:12;;;;;;;;;;;;;;;;;;5011747;28;19925;-79
2023/04/27 22:37:37;;;;;;;;;;;;;;;;;;5013237;28;19972;-79